createdAt,value
2019-01-18T00:00:42.789Z,1005.70
2019-01-18T00:01:44.711Z,1005.74
2019-01-18T00:02:44.950Z,1005.74
2019-01-18T00:03:42.681Z,1005.72
2019-01-18T00:04:43.139Z,1005.73
2019-01-18T00:05:42.825Z,1005.74
2019-01-18T00:06:42.670Z,1005.76
2019-01-18T00:07:42.794Z,1005.76
2019-01-18T00:08:42.821Z,1005.81
2019-01-18T00:09:42.837Z,1005.82
2019-01-18T00:10:42.741Z,1005.84
2019-01-18T00:11:42.797Z,1005.88
2019-01-18T00:12:43.241Z,1005.89
2019-01-18T00:13:42.797Z,1005.90
2019-01-18T00:14:42.262Z,1005.92
2019-01-18T00:15:42.772Z,1005.95
2019-01-18T00:16:42.806Z,1005.98
2019-01-18T00:17:42.750Z,1005.96
2019-01-18T00:18:42.891Z,1006.01
2019-01-18T00:19:42.945Z,1005.98
2019-01-18T00:20:42.796Z,1006.02
2019-01-18T00:21:43.097Z,1006.06
2019-01-18T00:22:42.891Z,1006.08
2019-01-18T00:23:42.883Z,1006.14
2019-01-18T00:24:42.814Z,1006.16
2019-01-18T00:25:42.808Z,1006.24
2019-01-18T00:26:42.918Z,1006.26
2019-01-18T00:27:42.816Z,1006.24
2019-01-18T00:28:42.912Z,1006.27
2019-01-18T00:29:42.794Z,1006.24
2019-01-18T00:30:42.919Z,1006.28
2019-01-18T00:31:42.789Z,1006.30
2019-01-18T00:32:43.256Z,1006.32
2019-01-18T00:33:42.635Z,1006.30
2019-01-18T00:34:42.683Z,1006.30
2019-01-18T00:35:43.478Z,1006.31
2019-01-18T00:36:42.316Z,1006.34
2019-01-18T00:37:42.776Z,1006.37
2019-01-18T00:38:42.780Z,1006.35
2019-01-18T00:39:42.861Z,1006.40
2019-01-18T00:40:42.897Z,1006.38
2019-01-18T00:41:42.828Z,1006.39
2019-01-18T00:42:43.011Z,1006.40
2019-01-18T00:43:42.222Z,1006.41
2019-01-18T00:44:42.810Z,1006.46
2019-01-18T00:45:42.394Z,1006.44
2019-01-18T00:46:56.825Z,1006.47
2019-01-18T00:47:42.798Z,1006.49
2019-01-18T00:48:42.302Z,1006.56
2019-01-18T00:49:42.847Z,1006.55
2019-01-18T00:50:42.955Z,1006.58
2019-01-18T00:51:42.293Z,1006.62
2019-01-18T00:52:42.275Z,1006.65
2019-01-18T00:53:42.322Z,1006.66
2019-01-18T00:54:42.813Z,1006.67
2019-01-18T00:55:42.337Z,1006.66
2019-01-18T00:56:42.646Z,1006.69
2019-01-18T00:57:42.718Z,1006.70
2019-01-18T00:58:42.258Z,1006.77
2019-01-18T00:59:42.275Z,1006.75
2019-01-18T01:01:42.792Z,1006.72
2019-01-18T01:02:42.599Z,1006.77
2019-01-18T01:03:42.704Z,1006.80
2019-01-18T01:04:44.345Z,1006.78
2019-01-18T01:05:42.268Z,1006.81
2019-01-18T01:06:42.337Z,1006.80
2019-01-18T01:07:42.395Z,1006.90
2019-01-18T01:08:42.294Z,1006.90
2019-01-18T01:09:42.359Z,1006.94
2019-01-18T01:10:42.342Z,1006.95
2019-01-18T01:11:42.416Z,1006.98
2019-01-18T01:12:42.324Z,1007.02
2019-01-18T01:13:42.291Z,1007.04
2019-01-18T01:14:42.424Z,1007.07
2019-01-18T01:15:42.367Z,1007.06
2019-01-18T01:16:42.352Z,1007.12
2019-01-18T01:17:42.350Z,1007.18
2019-01-18T01:18:42.319Z,1007.12
2019-01-18T01:19:42.379Z,1007.23
2019-01-18T01:20:42.383Z,1007.21
2019-01-18T01:21:42.387Z,1007.22
2019-01-18T01:22:42.368Z,1007.27
2019-01-18T01:23:42.405Z,1007.32
2019-01-18T01:24:42.406Z,1007.31
2019-01-18T01:25:42.279Z,1007.40
2019-01-18T01:26:42.254Z,1007.39
2019-01-18T01:27:42.348Z,1007.39
2019-01-18T01:28:42.365Z,1007.51
2019-01-18T01:29:43.210Z,1007.52
2019-01-18T01:30:42.339Z,1007.52
2019-01-18T01:31:48.319Z,1007.54
2019-01-18T01:32:42.354Z,1007.58
2019-01-18T01:33:42.368Z,1007.61
2019-01-18T01:34:42.390Z,1007.63
2019-01-18T01:35:42.310Z,1007.68
2019-01-18T01:36:42.203Z,1007.72
2019-01-18T01:37:42.618Z,1007.70
2019-01-18T01:38:42.442Z,1007.77
2019-01-18T01:39:42.406Z,1007.77
2019-01-18T01:40:42.351Z,1007.76
2019-01-18T01:41:42.373Z,1007.83
2019-01-18T01:42:42.281Z,1007.79
2019-01-18T01:43:42.776Z,1007.86
2019-01-18T01:44:41.739Z,1007.92
2019-01-18T01:45:42.256Z,1007.89
2019-01-18T01:46:41.760Z,1007.95
2019-01-18T01:47:41.771Z,1007.98
2019-01-18T01:48:41.750Z,1007.89
2019-01-18T01:49:42.133Z,1008.01
2019-01-18T01:50:42.202Z,1008.00
2019-01-18T01:51:43.778Z,1008.02
2019-01-18T01:52:41.845Z,1008.07
2019-01-18T01:53:42.331Z,1008.05
2019-01-18T01:54:42.127Z,1008.10
2019-01-18T01:55:41.819Z,1008.06
2019-01-18T01:56:41.790Z,1008.07
2019-01-18T01:57:41.806Z,1008.11
2019-01-18T01:58:41.852Z,1008.10
2019-01-18T01:59:41.819Z,1008.15
2019-01-18T02:00:41.769Z,1008.13
2019-01-18T02:01:41.804Z,1008.19
2019-01-18T02:02:41.818Z,1008.16
2019-01-18T02:03:41.803Z,1008.21
2019-01-18T02:04:41.736Z,1008.21
2019-01-18T02:05:41.821Z,1008.23
2019-01-18T02:06:41.903Z,1008.27
2019-01-18T02:07:41.913Z,1008.22
2019-01-18T02:08:41.823Z,1008.28
2019-01-18T02:09:41.883Z,1008.30
2019-01-18T02:10:41.831Z,1008.33
2019-01-18T02:11:41.820Z,1008.40
2019-01-18T02:12:41.793Z,1008.37
2019-01-18T02:13:41.821Z,1008.39
2019-01-18T02:14:41.797Z,1008.38
2019-01-18T02:15:41.831Z,1008.46
2019-01-18T02:16:41.820Z,1008.50
2019-01-18T02:17:41.783Z,1008.50
2019-01-18T02:18:41.872Z,1008.52
2019-01-18T02:19:41.923Z,1008.59
2019-01-18T02:20:41.810Z,1008.61
2019-01-18T02:21:42.100Z,1008.62
2019-01-18T02:22:41.840Z,1008.66
2019-01-18T02:23:41.837Z,1008.69
2019-01-18T02:24:41.829Z,1008.70
2019-01-18T02:25:41.849Z,1008.76
2019-01-18T02:26:41.827Z,1008.73
2019-01-18T02:27:41.880Z,1008.80
2019-01-18T02:28:41.873Z,1008.85
2019-01-18T02:29:41.874Z,1008.80
2019-01-18T02:30:41.817Z,1008.84
2019-01-18T02:31:41.851Z,1008.86
2019-01-18T02:32:41.790Z,1008.86
2019-01-18T02:33:41.878Z,1008.87
2019-01-18T02:34:42.046Z,1008.88
2019-01-18T02:35:41.923Z,1008.90
2019-01-18T02:36:41.924Z,1008.89
2019-01-18T02:37:41.782Z,1008.88
2019-01-18T02:38:41.303Z,1008.88
2019-01-18T02:39:41.238Z,1008.88
2019-01-18T02:40:41.713Z,1008.85
2019-01-18T02:41:41.313Z,1008.89
2019-01-18T02:42:43.263Z,1008.88
2019-01-18T02:43:41.225Z,1008.92
2019-01-18T02:44:43.334Z,1008.88
2019-01-18T02:45:43.322Z,1008.92
2019-01-18T02:46:43.350Z,1008.95
2019-01-18T02:47:41.324Z,1008.90
2019-01-18T02:48:41.307Z,1008.93
2019-01-18T02:49:41.321Z,1008.95
2019-01-18T02:50:41.319Z,1008.95
2019-01-18T02:51:41.337Z,1008.99
2019-01-18T02:52:41.319Z,1009.00
2019-01-18T02:53:41.233Z,1009.02
2019-01-18T02:54:41.210Z,1008.96
2019-01-18T02:55:41.314Z,1008.98
2019-01-18T02:56:43.330Z,1009.01
2019-01-18T02:57:41.234Z,1008.91
2019-01-18T02:58:41.431Z,1008.96
2019-01-18T02:59:41.222Z,1008.93
2019-01-18T03:00:41.266Z,1008.95
2019-01-18T03:01:41.273Z,1008.99
2019-01-18T03:02:41.294Z,1008.96
2019-01-18T03:03:41.269Z,1008.97
2019-01-18T03:04:41.337Z,1008.99
2019-01-18T03:05:41.370Z,1009.02
2019-01-18T03:06:41.340Z,1009.01
2019-01-18T03:07:41.316Z,1009.03
2019-01-18T03:08:41.460Z,1009.06
2019-01-18T03:09:41.352Z,1009.06
2019-01-18T03:10:41.336Z,1009.04
2019-01-18T03:11:41.462Z,1009.10
2019-01-18T03:12:47.420Z,1009.07
2019-01-18T03:13:41.304Z,1009.07
2019-01-18T03:14:41.350Z,1009.12
2019-01-18T03:15:41.343Z,1009.10
2019-01-18T03:16:41.447Z,1009.13
2019-01-18T03:17:41.164Z,1009.15
2019-01-18T03:18:41.111Z,1009.19
2019-01-18T03:19:41.188Z,1009.21
2019-01-18T03:20:41.114Z,1009.23
2019-01-18T03:21:41.098Z,1009.25
2019-01-18T03:22:41.189Z,1009.26
2019-01-18T03:23:40.573Z,1009.21
2019-01-18T03:24:41.104Z,1009.29
2019-01-18T03:25:41.116Z,1009.27
2019-01-18T03:26:41.115Z,1009.34
2019-01-18T03:27:41.030Z,1009.30
2019-01-18T03:28:40.720Z,1009.31
2019-01-18T03:29:40.778Z,1009.34
2019-01-18T03:30:40.804Z,1009.38
2019-01-18T03:31:40.759Z,1009.40
2019-01-18T03:32:40.769Z,1009.43
2019-01-18T03:33:40.790Z,1009.49
2019-01-18T03:34:40.743Z,1009.51
2019-01-18T03:35:40.655Z,1009.57
2019-01-18T03:36:40.632Z,1009.59
2019-01-18T03:37:40.708Z,1009.57
2019-01-18T03:38:40.663Z,1009.59
2019-01-18T03:39:40.710Z,1009.62
2019-01-18T03:40:40.705Z,1009.66
2019-01-18T03:41:40.732Z,1009.66
2019-01-18T03:42:40.302Z,1009.66
2019-01-18T03:43:40.624Z,1009.64
2019-01-18T03:44:40.586Z,1009.68
2019-01-18T03:45:40.616Z,1009.70
2019-01-18T03:46:40.648Z,1009.68
2019-01-18T03:47:40.289Z,1009.76
2019-01-18T03:48:40.651Z,1009.71
2019-01-18T03:49:40.660Z,1009.74
2019-01-18T03:50:40.629Z,1009.74
2019-01-18T03:51:40.648Z,1009.77
2019-01-18T03:52:46.588Z,1009.79
2019-01-18T03:53:40.671Z,1009.81
2019-01-18T03:54:38.559Z,1009.81
2019-01-18T03:55:40.672Z,1009.83
2019-01-18T03:56:40.599Z,1009.84
2019-01-18T03:57:40.130Z,1009.87
2019-01-18T03:58:40.543Z,1009.86
2019-01-18T03:59:38.503Z,1009.88
2019-01-18T04:00:40.575Z,1009.82
2019-01-18T04:01:40.566Z,1009.85
2019-01-18T04:02:40.593Z,1009.87
2019-01-18T04:03:40.632Z,1009.85
2019-01-18T04:04:40.624Z,1009.81
2019-01-18T04:05:40.580Z,1009.88
2019-01-18T04:06:40.593Z,1009.91
2019-01-18T04:07:40.638Z,1009.86
2019-01-18T04:08:40.024Z,1009.84
2019-01-18T04:09:40.779Z,1009.85
2019-01-18T04:10:40.630Z,1009.87
2019-01-18T04:11:40.587Z,1009.89
2019-01-18T04:12:40.590Z,1009.96
2019-01-18T04:13:40.626Z,1009.95
2019-01-18T04:14:40.614Z,1009.95
2019-01-18T04:15:39.986Z,1009.96
2019-01-18T04:16:40.583Z,1009.94
2019-01-18T04:17:40.651Z,1009.94
2019-01-18T04:18:42.098Z,1009.94
2019-01-18T04:19:42.101Z,1009.94
2019-01-18T04:20:42.093Z,1009.96
2019-01-18T04:21:42.147Z,1009.95
2019-01-18T04:22:40.242Z,1009.93
2019-01-18T04:23:40.248Z,1009.92
2019-01-18T04:24:40.699Z,1010.00
2019-01-18T04:25:40.276Z,1010.01
2019-01-18T04:26:40.351Z,1009.96
2019-01-18T04:27:41.263Z,1009.99
2019-01-18T04:28:40.727Z,1010.00
2019-01-18T04:29:40.293Z,1009.96
2019-01-18T04:30:40.724Z,1009.99
2019-01-18T04:31:40.363Z,1009.98
2019-01-18T04:32:40.290Z,1010.00
2019-01-18T04:33:40.265Z,1009.99
2019-01-18T04:34:40.276Z,1009.99
2019-01-18T04:35:40.461Z,1010.00
2019-01-18T04:36:40.376Z,1010.03
2019-01-18T04:37:40.287Z,1010.03
2019-01-18T04:38:40.342Z,1010.01
2019-01-18T04:39:40.311Z,1010.02
2019-01-18T04:40:38.168Z,1009.99
2019-01-18T04:41:40.126Z,1010.04
2019-01-18T04:42:38.108Z,1010.08
2019-01-18T04:43:39.754Z,1010.04
2019-01-18T04:44:40.076Z,1010.03
2019-01-18T04:45:40.099Z,1010.02
2019-01-18T04:46:39.823Z,1010.04
2019-01-18T04:47:40.332Z,1010.08
2019-01-18T04:48:40.362Z,1010.08
2019-01-18T04:49:40.216Z,1010.12
2019-01-18T04:50:39.825Z,1010.08
2019-01-18T04:51:40.370Z,1010.18
2019-01-18T04:52:40.361Z,1010.17
2019-01-18T04:53:54.372Z,1010.18
2019-01-18T04:54:40.435Z,1010.17
2019-01-18T04:55:40.398Z,1010.17
2019-01-18T04:56:39.596Z,1010.21
2019-01-18T04:57:40.115Z,1010.22
2019-01-18T04:58:40.064Z,1010.20
2019-01-18T04:59:40.072Z,1010.22
2019-01-18T05:00:40.930Z,1010.18
2019-01-18T05:01:39.460Z,1010.26
2019-01-18T05:02:40.067Z,1010.23
2019-01-18T05:03:37.890Z,1010.22
2019-01-18T05:04:40.051Z,1010.25
2019-01-18T05:05:40.072Z,1010.32
2019-01-18T05:06:41.617Z,1010.30
2019-01-18T05:07:41.513Z,1010.32
2019-01-18T05:08:41.679Z,1010.33
2019-01-18T05:09:40.216Z,1010.31
2019-01-18T05:10:40.236Z,1010.38
2019-01-18T05:11:39.667Z,1010.36
2019-01-18T05:12:39.690Z,1010.39
2019-01-18T05:13:39.677Z,1010.43
2019-01-18T05:14:39.641Z,1010.46
2019-01-18T05:15:39.354Z,1010.51
2019-01-18T05:16:39.792Z,1010.50
2019-01-18T05:17:39.732Z,1010.54
2019-01-18T05:18:39.638Z,1010.60
2019-01-18T05:19:39.610Z,1010.58
2019-01-18T05:20:45.591Z,1010.59
2019-01-18T05:21:39.572Z,1010.64
2019-01-18T05:22:39.643Z,1010.72
2019-01-18T05:23:39.600Z,1010.62
2019-01-18T05:24:49.411Z,1010.70
2019-01-18T05:25:45.559Z,1010.74
2019-01-18T05:26:39.788Z,1010.74
2019-01-18T05:27:39.355Z,1010.83
2019-01-18T05:28:39.801Z,1010.81
2019-01-18T05:29:39.740Z,1010.79
2019-01-18T05:30:39.713Z,1010.83
2019-01-18T05:31:39.712Z,1010.83
2019-01-18T05:32:39.645Z,1010.87
2019-01-18T05:33:39.589Z,1010.77
2019-01-18T05:34:39.610Z,1010.92
2019-01-18T05:35:39.703Z,1010.90
2019-01-18T05:36:39.446Z,1010.89
2019-01-18T05:37:39.411Z,1010.93
2019-01-18T05:38:39.425Z,1010.90
2019-01-18T05:39:39.399Z,1010.93
2019-01-18T05:40:39.467Z,1010.97
2019-01-18T05:41:39.414Z,1010.99
2019-01-18T05:42:39.541Z,1011.01
2019-01-18T05:43:39.678Z,1011.03
2019-01-18T05:44:40.838Z,1011.06
2019-01-18T05:45:45.726Z,1011.05
2019-01-18T05:46:39.734Z,1011.07
2019-01-18T05:47:39.571Z,1011.02
2019-01-18T05:48:38.884Z,1011.04
2019-01-18T05:49:39.417Z,1011.10
2019-01-18T05:50:39.530Z,1011.05
2019-01-18T05:51:39.623Z,1011.06
2019-01-18T05:52:45.682Z,1011.05
2019-01-18T05:53:39.219Z,1011.10
2019-01-18T05:54:41.340Z,1011.12
2019-01-18T05:55:39.090Z,1011.12
2019-01-18T05:56:38.920Z,1011.08
2019-01-18T05:57:39.324Z,1011.11
2019-01-18T05:58:41.187Z,1011.14
2019-01-18T05:59:39.696Z,1011.12
2019-01-18T06:00:39.029Z,1011.15
2019-01-18T06:01:39.062Z,1011.10
2019-01-18T06:02:39.073Z,1011.14
2019-01-18T06:04:39.722Z,1011.17
2019-01-18T06:05:39.792Z,1011.29
2019-01-18T06:06:38.982Z,1011.27
2019-01-18T06:07:39.234Z,1011.31
2019-01-18T06:08:39.097Z,1011.27
2019-01-18T06:09:38.992Z,1011.28
2019-01-18T06:10:38.599Z,1011.34
2019-01-18T06:11:38.959Z,1011.37
2019-01-18T06:12:38.932Z,1011.39
2019-01-18T06:13:39.017Z,1011.36
2019-01-18T06:14:39.275Z,1011.40
2019-01-18T06:15:40.462Z,1011.38
2019-01-18T06:16:45.434Z,1011.39
2019-01-18T06:17:39.411Z,1011.39
2019-01-18T06:18:38.941Z,1011.39
2019-01-18T06:19:45.684Z,1011.45
2019-01-18T06:20:39.363Z,1011.40
2019-01-18T06:21:38.989Z,1011.44
2019-01-18T06:22:38.899Z,1011.45
2019-01-18T06:23:39.024Z,1011.47
2019-01-18T06:24:39.310Z,1011.50
2019-01-18T06:25:39.040Z,1011.51
2019-01-18T06:26:39.359Z,1011.53
2019-01-18T06:27:39.270Z,1011.57
2019-01-18T06:28:39.176Z,1011.52
2019-01-18T06:29:39.723Z,1011.52
2019-01-18T06:30:39.239Z,1011.48
2019-01-18T06:31:39.293Z,1011.55
2019-01-18T06:32:39.371Z,1011.55
2019-01-18T06:33:38.946Z,1011.51
2019-01-18T06:34:38.402Z,1011.53
2019-01-18T06:35:38.975Z,1011.52
2019-01-18T06:36:38.971Z,1011.49
2019-01-18T06:37:39.301Z,1011.54
2019-01-18T06:38:39.015Z,1011.55
2019-01-18T06:39:38.568Z,1011.59
2019-01-18T06:40:39.151Z,1011.58
2019-01-18T06:41:41.099Z,1011.64
2019-01-18T06:42:39.176Z,1011.62
2019-01-18T06:43:38.886Z,1011.63
2019-01-18T06:44:39.178Z,1011.66
2019-01-18T06:45:38.536Z,1011.63
2019-01-18T06:46:39.231Z,1011.71
2019-01-18T06:47:39.277Z,1011.67
2019-01-18T06:48:38.213Z,1011.72
2019-01-18T06:49:38.593Z,1011.75
2019-01-18T06:50:39.015Z,1011.76
2019-01-18T06:51:38.575Z,1011.75
2019-01-18T06:52:38.544Z,1011.79
2019-01-18T06:53:38.954Z,1011.80
2019-01-18T06:54:38.758Z,1011.83
2019-01-18T06:55:38.473Z,1011.83
2019-01-18T06:56:38.432Z,1011.87
2019-01-18T06:57:38.425Z,1011.87
2019-01-18T06:58:40.058Z,1011.86
2019-01-18T06:59:38.746Z,1011.88
2019-01-18T07:00:39.214Z,1011.88
2019-01-18T07:01:38.449Z,1011.87
2019-01-18T07:02:38.719Z,1011.89
2019-01-18T07:03:38.752Z,1011.89
2019-01-18T07:04:41.525Z,1011.96
2019-01-18T07:05:38.847Z,1011.95
2019-01-18T07:06:38.449Z,1011.98
2019-01-18T07:07:38.448Z,1011.98
2019-01-18T07:08:38.833Z,1012.03
2019-01-18T07:09:38.867Z,1012.06
2019-01-18T07:10:38.454Z,1012.07
2019-01-18T07:11:38.875Z,1012.07
2019-01-18T07:12:38.777Z,1012.09
2019-01-18T07:13:38.377Z,1012.11
2019-01-18T07:14:38.831Z,1012.09
2019-01-18T07:15:38.778Z,1012.10
2019-01-18T07:16:39.253Z,1012.12
2019-01-18T07:17:38.858Z,1012.14
2019-01-18T07:18:38.458Z,1012.15
2019-01-18T07:19:39.067Z,1012.19
2019-01-18T07:20:38.444Z,1012.16
2019-01-18T07:21:38.847Z,1012.19
2019-01-18T07:22:39.264Z,1012.22
2019-01-18T07:23:38.769Z,1012.21
2019-01-18T07:24:38.820Z,1012.22
2019-01-18T07:25:38.029Z,1012.24
2019-01-18T07:26:38.426Z,1012.23
2019-01-18T07:27:38.564Z,1012.24
2019-01-18T07:28:38.050Z,1012.25
2019-01-18T07:29:38.166Z,1012.24
2019-01-18T07:30:38.738Z,1012.30
2019-01-18T07:31:38.222Z,1012.29
2019-01-18T07:32:38.260Z,1012.29
2019-01-18T07:33:39.939Z,1012.36
2019-01-18T07:34:37.998Z,1012.30
2019-01-18T07:35:37.914Z,1012.37
2019-01-18T07:36:37.686Z,1012.45
2019-01-18T07:37:37.903Z,1012.45
2019-01-18T07:38:38.351Z,1012.44
2019-01-18T07:39:38.337Z,1012.43
2019-01-18T07:40:37.838Z,1012.49
2019-01-18T07:41:38.780Z,1012.46
2019-01-18T07:42:37.962Z,1012.48
2019-01-18T07:43:38.006Z,1012.50
2019-01-18T07:44:37.957Z,1012.59
2019-01-18T07:45:37.966Z,1012.50
2019-01-18T07:46:36.071Z,1012.57
2019-01-18T07:47:38.242Z,1012.57
2019-01-18T07:48:38.001Z,1012.55
2019-01-18T07:49:38.772Z,1012.57
2019-01-18T07:50:37.977Z,1012.62
2019-01-18T07:51:37.952Z,1012.62
2019-01-18T07:52:36.070Z,1012.66
2019-01-18T07:53:38.277Z,1012.61
2019-01-18T07:54:38.196Z,1012.64
2019-01-18T07:55:37.908Z,1012.66
2019-01-18T07:56:37.949Z,1012.66
2019-01-18T07:57:37.670Z,1012.71
